sensor_id;sensor_type;location;lat;lon;timestamp;P1;durP1;ratioP1;P2;durP2;ratioP2
68951;SDS011;56000;51.146;17.112;2022-10-16T00:00:12;12.90;;;7.50;;
68951;SDS011;56000;51.146;17.112;2022-10-16T00:03:06;11.60;;;7.10;;
68951;SDS011;56000;51.146;17.112;2022-10-16T00:05:43;12.80;;;7.30;;
68951;SDS011;56000;51.146;17.112;2022-10-16T00:08:16;11.60;;;7.10;;
68951;SDS011;56000;51.146;17.112;2022-10-16T00:10:49;16.90;;;8.40;;
68951;SDS011;56000;51.146;17.112;2022-10-16T00:13:22;14.80;;;8.60;;
68951;SDS011;56000;51.146;17.112;2022-10-16T00:15:57;11.60;;;7.00;;
68951;SDS011;56000;51.146;17.112;2022-10-16T00:18:31;15.30;;;7.90;;
68951;SDS011;56000;51.146;17.112;2022-10-16T00:21:05;12.80;;;7.60;;
68951;SDS011;56000;51.146;17.112;2022-10-16T00:23:39;11.30;;;7.90;;
68951;SDS011;56000;51.146;17.112;2022-10-16T00:26:14;10.90;;;6.70;;
68951;SDS011;56000;51.146;17.112;2022-10-16T00:28:48;13.40;;;6.10;;
68951;SDS011;56000;51.146;17.112;2022-10-16T00:31:23;10.20;;;5.80;;
68951;SDS011;56000;51.146;17.112;2022-10-16T00:33:56;8.70;;;5.70;;
68951;SDS011;56000;51.146;17.112;2022-10-16T00:36:30;11.10;;;4.80;;
68951;SDS011;56000;51.146;17.112;2022-10-16T00:39:03;8.60;;;5.10;;
68951;SDS011;56000;51.146;17.112;2022-10-16T00:41:35;7.70;;;5.20;;
68951;SDS011;56000;51.146;17.112;2022-10-16T00:47:21;9.10;;;5.80;;
68951;SDS011;56000;51.146;17.112;2022-10-16T00:50:00;8.80;;;5.40;;
68951;SDS011;56000;51.146;17.112;2022-10-16T00:52:39;8.40;;;5.40;;
68951;SDS011;56000;51.146;17.112;2022-10-16T00:55:14;10.30;;;5.90;;
68951;SDS011;56000;51.146;17.112;2022-10-16T00:57:47;10.40;;;6.10;;
68951;SDS011;56000;51.146;17.112;2022-10-16T01:00:23;8.70;;;5.60;;
68951;SDS011;56000;51.146;17.112;2022-10-16T01:02:58;9.00;;;6.10;;
68951;SDS011;56000;51.146;17.112;2022-10-16T01:05:35;11.10;;;5.70;;
68951;SDS011;56000;51.146;17.112;2022-10-16T01:08:18;9.30;;;5.20;;
68951;SDS011;56000;51.146;17.112;2022-10-16T01:10:57;8.50;;;5.10;;
68951;SDS011;56000;51.146;17.112;2022-10-16T01:13:35;7.00;;;4.40;;
68951;SDS011;56000;51.146;17.112;2022-10-16T01:16:15;10.30;;;4.70;;
68951;SDS011;56000;51.146;17.112;2022-10-16T01:18:57;8.80;;;4.50;;
68951;SDS011;56000;51.146;17.112;2022-10-16T01:21:40;8.80;;;4.70;;
68951;SDS011;56000;51.146;17.112;2022-10-16T01:24:21;5.80;;;4.10;;
68951;SDS011;56000;51.146;17.112;2022-10-16T01:27:20;6.40;;;4.30;;
68951;SDS011;56000;51.146;17.112;2022-10-16T01:29:59;8.20;;;4.10;;
68951;SDS011;56000;51.146;17.112;2022-10-16T01:32:40;6.20;;;4.10;;
68951;SDS011;56000;51.146;17.112;2022-10-16T01:35:17;8.30;;;4.60;;
68951;SDS011;56000;51.146;17.112;2022-10-16T01:37:54;6.10;;;4.20;;
68951;SDS011;56000;51.146;17.112;2022-10-16T01:40:32;7.80;;;4.40;;
68951;SDS011;56000;51.146;17.112;2022-10-16T01:43:08;5.90;;;4.10;;
68951;SDS011;56000;51.146;17.112;2022-10-16T01:45:45;5.80;;;4.10;;
68951;SDS011;56000;51.146;17.112;2022-10-16T01:48:19;5.60;;;4.00;;
68951;SDS011;56000;51.146;17.112;2022-10-16T01:50:56;9.40;;;4.80;;
68951;SDS011;56000;51.146;17.112;2022-10-16T01:53:33;6.20;;;4.30;;
68951;SDS011;56000;51.146;17.112;2022-10-16T01:56:09;9.20;;;4.90;;
68951;SDS011;56000;51.146;17.112;2022-10-16T01:58:45;6.50;;;4.80;;
68951;SDS011;56000;51.146;17.112;2022-10-16T02:01:23;5.90;;;4.20;;
68951;SDS011;56000;51.146;17.112;2022-10-16T02:03:59;7.60;;;4.40;;
68951;SDS011;56000;51.146;17.112;2022-10-16T02:06:34;5.80;;;4.20;;
68951;SDS011;56000;51.146;17.112;2022-10-16T02:09:07;8.90;;;5.40;;
68951;SDS011;56000;51.146;17.112;2022-10-16T02:11:41;9.50;;;4.70;;
68951;SDS011;56000;51.146;17.112;2022-10-16T02:14:14;7.90;;;4.90;;
68951;SDS011;56000;51.146;17.112;2022-10-16T02:16:47;6.60;;;4.20;;
68951;SDS011;56000;51.146;17.112;2022-10-16T02:19:20;13.00;;;5.60;;
68951;SDS011;56000;51.146;17.112;2022-10-16T02:21:56;7.50;;;4.90;;
68951;SDS011;56000;51.146;17.112;2022-10-16T02:24:33;7.60;;;5.10;;
68951;SDS011;56000;51.146;17.112;2022-10-16T02:27:11;7.60;;;4.20;;
68951;SDS011;56000;51.146;17.112;2022-10-16T02:29:50;8.10;;;4.70;;
68951;SDS011;56000;51.146;17.112;2022-10-16T02:32:30;7.00;;;4.80;;
68951;SDS011;56000;51.146;17.112;2022-10-16T02:35:04;8.30;;;5.20;;
68951;SDS011;56000;51.146;17.112;2022-10-16T02:37:39;8.30;;;4.80;;
68951;SDS011;56000;51.146;17.112;2022-10-16T02:40:13;6.60;;;4.80;;
68951;SDS011;56000;51.146;17.112;2022-10-16T02:42:53;8.40;;;5.00;;
68951;SDS011;56000;51.146;17.112;2022-10-16T02:45:26;7.40;;;5.20;;
68951;SDS011;56000;51.146;17.112;2022-10-16T02:47:59;8.00;;;5.20;;
68951;SDS011;56000;51.146;17.112;2022-10-16T02:50:33;6.90;;;5.10;;
68951;SDS011;56000;51.146;17.112;2022-10-16T02:53:06;8.70;;;4.80;;
68951;SDS011;56000;51.146;17.112;2022-10-16T02:55:38;7.50;;;5.60;;
68951;SDS011;56000;51.146;17.112;2022-10-16T02:58:11;10.60;;;5.40;;
68951;SDS011;56000;51.146;17.112;2022-10-16T03:00:44;7.50;;;5.20;;
68951;SDS011;56000;51.146;17.112;2022-10-16T03:03:17;8.20;;;5.70;;
68951;SDS011;56000;51.146;17.112;2022-10-16T03:05:50;7.60;;;5.60;;
68951;SDS011;56000;51.146;17.112;2022-10-16T03:08:23;9.40;;;5.60;;
68951;SDS011;56000;51.146;17.112;2022-10-16T03:10:56;8.90;;;5.50;;
68951;SDS011;56000;51.146;17.112;2022-10-16T03:13:30;8.50;;;5.40;;
68951;SDS011;56000;51.146;17.112;2022-10-16T03:16:03;7.40;;;5.40;;
68951;SDS011;56000;51.146;17.112;2022-10-16T03:18:37;8.30;;;5.00;;
68951;SDS011;56000;51.146;17.112;2022-10-16T03:21:10;9.40;;;5.20;;
68951;SDS011;56000;51.146;17.112;2022-10-16T03:23:42;8.40;;;5.30;;
68951;SDS011;56000;51.146;17.112;2022-10-16T03:26:16;7.40;;;4.70;;
68951;SDS011;56000;51.146;17.112;2022-10-16T03:28:49;8.10;;;5.10;;
68951;SDS011;56000;51.146;17.112;2022-10-16T03:31:22;12.20;;;5.30;;
68951;SDS011;56000;51.146;17.112;2022-10-16T03:33:55;9.40;;;5.00;;
68951;SDS011;56000;51.146;17.112;2022-10-16T03:36:28;6.60;;;4.80;;
68951;SDS011;56000;51.146;17.112;2022-10-16T03:39:01;6.80;;;4.90;;
68951;SDS011;56000;51.146;17.112;2022-10-16T03:41:33;7.30;;;5.20;;
68951;SDS011;56000;51.146;17.112;2022-10-16T03:44:06;7.20;;;5.00;;
68951;SDS011;56000;51.146;17.112;2022-10-16T03:46:39;7.40;;;5.40;;
68951;SDS011;56000;51.146;17.112;2022-10-16T03:49:12;8.30;;;5.30;;
68951;SDS011;56000;51.146;17.112;2022-10-16T03:51:45;6.40;;;4.70;;
68951;SDS011;56000;51.146;17.112;2022-10-16T03:54:18;7.40;;;5.70;;
68951;SDS011;56000;51.146;17.112;2022-10-16T03:56:51;12.00;;;5.90;;
68951;SDS011;56000;51.146;17.112;2022-10-16T03:59:24;6.30;;;4.50;;
68951;SDS011;56000;51.146;17.112;2022-10-16T04:01:57;6.90;;;4.70;;
68951;SDS011;56000;51.146;17.112;2022-10-16T04:04:30;9.90;;;5.20;;
68951;SDS011;56000;51.146;17.112;2022-10-16T04:07:03;9.10;;;4.70;;
68951;SDS011;56000;51.146;17.112;2022-10-16T04:09:35;7.50;;;4.80;;
68951;SDS011;56000;51.146;17.112;2022-10-16T04:12:08;9.50;;;4.80;;
68951;SDS011;56000;51.146;17.112;2022-10-16T04:14:41;11.40;;;5.10;;
68951;SDS011;56000;51.146;17.112;2022-10-16T04:17:14;11.30;;;5.10;;
68951;SDS011;56000;51.146;17.112;2022-10-16T04:19:47;7.00;;;5.00;;
68951;SDS011;56000;51.146;17.112;2022-10-16T04:22:20;7.00;;;4.80;;
68951;SDS011;56000;51.146;17.112;2022-10-16T04:24:53;7.10;;;4.50;;
68951;SDS011;56000;51.146;17.112;2022-10-16T04:27:26;10.50;;;5.30;;
68951;SDS011;56000;51.146;17.112;2022-10-16T04:30:01;6.60;;;4.10;;
68951;SDS011;56000;51.146;17.112;2022-10-16T04:32:34;8.30;;;5.30;;
68951;SDS011;56000;51.146;17.112;2022-10-16T04:35:08;9.60;;;4.50;;
68951;SDS011;56000;51.146;17.112;2022-10-16T04:37:41;8.10;;;4.90;;
68951;SDS011;56000;51.146;17.112;2022-10-16T04:40:14;9.20;;;4.50;;
68951;SDS011;56000;51.146;17.112;2022-10-16T04:42:48;9.30;;;4.80;;
68951;SDS011;56000;51.146;17.112;2022-10-16T04:45:21;9.30;;;4.60;;
68951;SDS011;56000;51.146;17.112;2022-10-16T04:47:56;9.80;;;4.70;;
68951;SDS011;56000;51.146;17.112;2022-10-16T04:50:29;8.90;;;5.20;;
68951;SDS011;56000;51.146;17.112;2022-10-16T04:53:08;8.70;;;4.80;;
68951;SDS011;56000;51.146;17.112;2022-10-16T04:55:41;7.60;;;4.70;;
68951;SDS011;56000;51.146;17.112;2022-10-16T04:58:14;7.80;;;5.00;;
68951;SDS011;56000;51.146;17.112;2022-10-16T05:00:47;6.80;;;5.10;;
68951;SDS011;56000;51.146;17.112;2022-10-16T05:03:20;9.40;;;5.50;;
68951;SDS011;56000;51.146;17.112;2022-10-16T05:05:53;8.20;;;4.80;;
68951;SDS011;56000;51.146;17.112;2022-10-16T05:08:26;8.10;;;5.50;;
68951;SDS011;56000;51.146;17.112;2022-10-16T05:10:59;9.30;;;4.90;;
68951;SDS011;56000;51.146;17.112;2022-10-16T05:13:32;6.30;;;4.40;;
68951;SDS011;56000;51.146;17.112;2022-10-16T05:16:08;13.30;;;8.60;;
68951;SDS011;56000;51.146;17.112;2022-10-16T05:18:41;8.30;;;5.50;;
68951;SDS011;56000;51.146;17.112;2022-10-16T05:21:13;10.00;;;4.90;;
68951;SDS011;56000;51.146;17.112;2022-10-16T05:23:47;7.40;;;5.10;;
68951;SDS011;56000;51.146;17.112;2022-10-16T05:26:19;7.70;;;4.80;;
68951;SDS011;56000;51.146;17.112;2022-10-16T05:28:52;7.20;;;4.60;;
68951;SDS011;56000;51.146;17.112;2022-10-16T05:31:25;9.80;;;5.00;;
68951;SDS011;56000;51.146;17.112;2022-10-16T05:34:00;8.40;;;4.60;;
68951;SDS011;56000;51.146;17.112;2022-10-16T05:36:34;7.80;;;5.30;;
68951;SDS011;56000;51.146;17.112;2022-10-16T05:39:06;8.50;;;5.40;;
68951;SDS011;56000;51.146;17.112;2022-10-16T05:41:39;9.20;;;5.00;;
68951;SDS011;56000;51.146;17.112;2022-10-16T05:44:12;6.80;;;4.90;;
68951;SDS011;56000;51.146;17.112;2022-10-16T05:46:45;11.50;;;5.50;;
68951;SDS011;56000;51.146;17.112;2022-10-16T05:49:18;7.90;;;5.10;;
68951;SDS011;56000;51.146;17.112;2022-10-16T05:51:51;7.90;;;4.60;;
68951;SDS011;56000;51.146;17.112;2022-10-16T05:54:24;7.60;;;5.00;;
68951;SDS011;56000;51.146;17.112;2022-10-16T05:56:56;7.10;;;4.70;;
68951;SDS011;56000;51.146;17.112;2022-10-16T05:59:29;7.20;;;5.10;;
68951;SDS011;56000;51.146;17.112;2022-10-16T06:02:02;8.80;;;5.70;;
68951;SDS011;56000;51.146;17.112;2022-10-16T06:04:35;8.90;;;5.40;;
68951;SDS011;56000;51.146;17.112;2022-10-16T06:07:08;6.50;;;4.80;;
68951;SDS011;56000;51.146;17.112;2022-10-16T06:09:40;15.50;;;10.30;;
68951;SDS011;56000;51.146;17.112;2022-10-16T06:12:13;11.40;;;6.70;;
68951;SDS011;56000;51.146;17.112;2022-10-16T06:14:47;8.80;;;5.50;;
68951;SDS011;56000;51.146;17.112;2022-10-16T06:17:20;7.20;;;5.40;;
68951;SDS011;56000;51.146;17.112;2022-10-16T06:19:53;10.90;;;5.00;;
68951;SDS011;56000;51.146;17.112;2022-10-16T06:22:26;7.40;;;5.30;;
68951;SDS011;56000;51.146;17.112;2022-10-16T06:24:59;9.20;;;5.00;;
68951;SDS011;56000;51.146;17.112;2022-10-16T06:27:32;9.70;;;5.40;;
68951;SDS011;56000;51.146;17.112;2022-10-16T06:30:06;8.90;;;5.60;;
68951;SDS011;56000;51.146;17.112;2022-10-16T06:32:40;8.20;;;5.10;;
68951;SDS011;56000;51.146;17.112;2022-10-16T06:35:13;8.50;;;4.80;;
68951;SDS011;56000;51.146;17.112;2022-10-16T06:37:46;6.90;;;4.90;;
68951;SDS011;56000;51.146;17.112;2022-10-16T06:40:19;8.10;;;5.30;;
68951;SDS011;56000;51.146;17.112;2022-10-16T06:42:52;10.60;;;5.20;;
68951;SDS011;56000;51.146;17.112;2022-10-16T06:45:27;6.90;;;4.70;;
68951;SDS011;56000;51.146;17.112;2022-10-16T06:47:59;8.90;;;4.90;;
68951;SDS011;56000;51.146;17.112;2022-10-16T06:50:32;7.40;;;4.60;;
68951;SDS011;56000;51.146;17.112;2022-10-16T06:53:05;6.60;;;4.80;;
68951;SDS011;56000;51.146;17.112;2022-10-16T06:55:38;6.50;;;4.80;;
68951;SDS011;56000;51.146;17.112;2022-10-16T06:58:10;5.90;;;4.40;;
68951;SDS011;56000;51.146;17.112;2022-10-16T07:00:43;9.50;;;5.00;;
68951;SDS011;56000;51.146;17.112;2022-10-16T07:03:16;10.00;;;5.30;;
68951;SDS011;56000;51.146;17.112;2022-10-16T07:05:49;8.10;;;5.20;;
68951;SDS011;56000;51.146;17.112;2022-10-16T07:08:22;18.60;;;8.10;;
68951;SDS011;56000;51.146;17.112;2022-10-16T07:11:01;7.90;;;4.90;;
68951;SDS011;56000;51.146;17.112;2022-10-16T07:13:35;9.80;;;5.50;;
68951;SDS011;56000;51.146;17.112;2022-10-16T07:16:11;7.80;;;4.80;;
68951;SDS011;56000;51.146;17.112;2022-10-16T07:18:45;8.70;;;5.50;;
68951;SDS011;56000;51.146;17.112;2022-10-16T07:21:24;12.20;;;4.80;;
68951;SDS011;56000;51.146;17.112;2022-10-16T07:24:00;7.00;;;5.00;;
68951;SDS011;56000;51.146;17.112;2022-10-16T07:26:35;7.30;;;4.60;;
68951;SDS011;56000;51.146;17.112;2022-10-16T07:29:12;8.70;;;5.10;;
68951;SDS011;56000;51.146;17.112;2022-10-16T07:31:47;7.70;;;5.20;;
68951;SDS011;56000;51.146;17.112;2022-10-16T07:34:20;11.80;;;6.70;;
68951;SDS011;56000;51.146;17.112;2022-10-16T07:36:53;5.90;;;4.40;;
68951;SDS011;56000;51.146;17.112;2022-10-16T07:39:26;6.30;;;4.40;;
68951;SDS011;56000;51.146;17.112;2022-10-16T07:41:59;8.10;;;4.20;;
68951;SDS011;56000;51.146;17.112;2022-10-16T07:44:32;6.70;;;4.40;;
68951;SDS011;56000;51.146;17.112;2022-10-16T07:47:04;6.10;;;4.00;;
68951;SDS011;56000;51.146;17.112;2022-10-16T07:49:37;6.10;;;3.80;;
68951;SDS011;56000;51.146;17.112;2022-10-16T07:52:10;4.40;;;3.50;;
68951;SDS011;56000;51.146;17.112;2022-10-16T07:54:43;5.50;;;4.00;;
68951;SDS011;56000;51.146;17.112;2022-10-16T07:57:16;5.40;;;3.50;;
68951;SDS011;56000;51.146;17.112;2022-10-16T07:59:49;4.80;;;3.90;;
68951;SDS011;56000;51.146;17.112;2022-10-16T08:02:22;5.90;;;3.50;;
68951;SDS011;56000;51.146;17.112;2022-10-16T08:04:55;8.60;;;3.70;;
68951;SDS011;56000;51.146;17.112;2022-10-16T08:07:28;3.70;;;2.90;;
68951;SDS011;56000;51.146;17.112;2022-10-16T08:10:01;4.00;;;2.90;;
68951;SDS011;56000;51.146;17.112;2022-10-16T08:12:34;4.40;;;2.90;;
68951;SDS011;56000;51.146;17.112;2022-10-16T08:15:09;4.00;;;2.90;;
68951;SDS011;56000;51.146;17.112;2022-10-16T08:17:42;5.10;;;3.50;;
68951;SDS011;56000;51.146;17.112;2022-10-16T08:20:15;4.10;;;3.50;;
68951;SDS011;56000;51.146;17.112;2022-10-16T08:22:49;4.20;;;2.90;;
68951;SDS011;56000;51.146;17.112;2022-10-16T08:25:22;3.20;;;2.80;;
68951;SDS011;56000;51.146;17.112;2022-10-16T08:27:56;3.00;;;2.40;;
68951;SDS011;56000;51.146;17.112;2022-10-16T08:30:29;3.50;;;2.70;;
68951;SDS011;56000;51.146;17.112;2022-10-16T08:33:02;8.30;;;2.50;;
68951;SDS011;56000;51.146;17.112;2022-10-16T08:35:35;2.80;;;2.60;;
68951;SDS011;56000;51.146;17.112;2022-10-16T08:38:08;3.40;;;2.90;;
68951;SDS011;56000;51.146;17.112;2022-10-16T08:40:43;4.50;;;3.40;;
68951;SDS011;56000;51.146;17.112;2022-10-16T08:43:35;3.70;;;3.00;;
68951;SDS011;56000;51.146;17.112;2022-10-16T08:46:28;3.50;;;3.20;;
68951;SDS011;56000;51.146;17.112;2022-10-16T08:49:19;4.20;;;3.20;;
68951;SDS011;56000;51.146;17.112;2022-10-16T08:51:54;3.60;;;2.90;;
68951;SDS011;56000;51.146;17.112;2022-10-16T08:54:31;8.10;;;2.90;;
68951;SDS011;56000;51.146;17.112;2022-10-16T08:57:21;3.00;;;2.70;;
68951;SDS011;56000;51.146;17.112;2022-10-16T08:59:57;2.80;;;2.50;;
68951;SDS011;56000;51.146;17.112;2022-10-16T09:02:33;3.20;;;2.60;;
68951;SDS011;56000;51.146;17.112;2022-10-16T09:05:34;5.10;;;3.40;;
68951;SDS011;56000;51.146;17.112;2022-10-16T09:08:22;3.90;;;2.90;;
68951;SDS011;56000;51.146;17.112;2022-10-16T09:11:05;3.70;;;2.70;;
68951;SDS011;56000;51.146;17.112;2022-10-16T09:13:47;5.00;;;3.40;;
68951;SDS011;56000;51.146;17.112;2022-10-16T09:16:29;3.50;;;2.80;;
68951;SDS011;56000;51.146;17.112;2022-10-16T09:19:10;3.60;;;3.10;;
68951;SDS011;56000;51.146;17.112;2022-10-16T09:21:47;5.10;;;2.90;;
68951;SDS011;56000;51.146;17.112;2022-10-16T09:24:23;3.80;;;3.00;;
68951;SDS011;56000;51.146;17.112;2022-10-16T09:26:58;3.60;;;2.90;;
68951;SDS011;56000;51.146;17.112;2022-10-16T09:29:31;4.40;;;3.00;;
68951;SDS011;56000;51.146;17.112;2022-10-16T09:32:11;6.30;;;3.20;;
68951;SDS011;56000;51.146;17.112;2022-10-16T09:34:47;6.00;;;2.90;;
68951;SDS011;56000;51.146;17.112;2022-10-16T09:37:22;4.20;;;2.90;;
68951;SDS011;56000;51.146;17.112;2022-10-16T09:39:56;4.30;;;2.90;;
68951;SDS011;56000;51.146;17.112;2022-10-16T09:42:36;3.70;;;3.10;;
68951;SDS011;56000;51.146;17.112;2022-10-16T09:45:22;7.80;;;3.40;;
68951;SDS011;56000;51.146;17.112;2022-10-16T09:47:56;5.00;;;3.50;;
68951;SDS011;56000;51.146;17.112;2022-10-16T09:50:30;3.10;;;2.80;;
68951;SDS011;56000;51.146;17.112;2022-10-16T09:53:08;3.30;;;2.60;;
68951;SDS011;56000;51.146;17.112;2022-10-16T09:55:53;8.20;;;2.60;;
68951;SDS011;56000;51.146;17.112;2022-10-16T09:58:26;9.10;;;3.50;;
68951;SDS011;56000;51.146;17.112;2022-10-16T10:00:58;2.50;;;2.00;;
68951;SDS011;56000;51.146;17.112;2022-10-16T10:03:40;2.40;;;2.20;;
68951;SDS011;56000;51.146;17.112;2022-10-16T10:06:25;3.10;;;2.50;;
68951;SDS011;56000;51.146;17.112;2022-10-16T10:09:05;3.30;;;2.10;;
68951;SDS011;56000;51.146;17.112;2022-10-16T10:11:48;3.10;;;2.20;;
68951;SDS011;56000;51.146;17.112;2022-10-16T10:14:32;2.50;;;1.90;;
68951;SDS011;56000;51.146;17.112;2022-10-16T10:17:15;2.10;;;1.80;;
68951;SDS011;56000;51.146;17.112;2022-10-16T10:19:51;2.00;;;1.60;;
68951;SDS011;56000;51.146;17.112;2022-10-16T10:22:31;2.60;;;2.10;;
68951;SDS011;56000;51.146;17.112;2022-10-16T10:25:21;2.50;;;1.80;;
68951;SDS011;56000;51.146;17.112;2022-10-16T10:28:29;2.10;;;1.90;;
68951;SDS011;56000;51.146;17.112;2022-10-16T10:31:23;4.00;;;1.90;;
68951;SDS011;56000;51.146;17.112;2022-10-16T10:34:09;7.00;;;1.70;;
68951;SDS011;56000;51.146;17.112;2022-10-16T10:36:56;2.00;;;1.80;;
68951;SDS011;56000;51.146;17.112;2022-10-16T10:39:38;1.90;;;1.70;;
68951;SDS011;56000;51.146;17.112;2022-10-16T10:42:19;1.70;;;1.60;;
68951;SDS011;56000;51.146;17.112;2022-10-16T10:45:11;2.40;;;1.60;;
68951;SDS011;56000;51.146;17.112;2022-10-16T10:48:10;2.30;;;1.90;;
68951;SDS011;56000;51.146;17.112;2022-10-16T10:50:54;2.50;;;1.50;;
68951;SDS011;56000;51.146;17.112;2022-10-16T10:53:43;1.70;;;1.60;;
68951;SDS011;56000;51.146;17.112;2022-10-16T10:56:39;2.20;;;1.60;;
68951;SDS011;56000;51.146;17.112;2022-10-16T10:59:39;2.70;;;1.60;;
68951;SDS011;56000;51.146;17.112;2022-10-16T11:02:26;2.20;;;1.80;;
68951;SDS011;56000;51.146;17.112;2022-10-16T11:05:23;2.60;;;2.30;;
68951;SDS011;56000;51.146;17.112;2022-10-16T11:08:12;3.90;;;1.90;;
68951;SDS011;56000;51.146;17.112;2022-10-16T11:10:52;2.00;;;1.50;;
68951;SDS011;56000;51.146;17.112;2022-10-16T11:13:32;4.00;;;2.00;;
68951;SDS011;56000;51.146;17.112;2022-10-16T11:16:13;3.00;;;1.50;;
68951;SDS011;56000;51.146;17.112;2022-10-16T11:18:52;2.20;;;2.00;;
68951;SDS011;56000;51.146;17.112;2022-10-16T11:21:31;1.70;;;1.40;;
68951;SDS011;56000;51.146;17.112;2022-10-16T11:24:16;1.40;;;1.30;;
68951;SDS011;56000;51.146;17.112;2022-10-16T11:26:53;1.30;;;1.30;;
68951;SDS011;56000;51.146;17.112;2022-10-16T11:29:28;1.50;;;1.40;;
68951;SDS011;56000;51.146;17.112;2022-10-16T11:32:06;1.60;;;1.50;;
68951;SDS011;56000;51.146;17.112;2022-10-16T11:34:52;1.50;;;1.40;;
68951;SDS011;56000;51.146;17.112;2022-10-16T11:37:29;5.20;;;1.60;;
68951;SDS011;56000;51.146;17.112;2022-10-16T11:40:16;1.70;;;1.60;;
68951;SDS011;56000;51.146;17.112;2022-10-16T11:42:57;2.00;;;1.40;;
68951;SDS011;56000;51.146;17.112;2022-10-16T11:45:35;1.50;;;1.40;;
68951;SDS011;56000;51.146;17.112;2022-10-16T11:48:17;5.40;;;1.60;;
68951;SDS011;56000;51.146;17.112;2022-10-16T11:50:58;3.70;;;1.60;;
68951;SDS011;56000;51.146;17.112;2022-10-16T11:53:42;1.80;;;1.70;;
68951;SDS011;56000;51.146;17.112;2022-10-16T11:56:22;7.70;;;4.70;;
68951;SDS011;56000;51.146;17.112;2022-10-16T11:58:58;4.20;;;2.00;;
68951;SDS011;56000;51.146;17.112;2022-10-16T12:01:40;2.90;;;2.20;;
68951;SDS011;56000;51.146;17.112;2022-10-16T12:04:21;8.20;;;1.80;;
68951;SDS011;56000;51.146;17.112;2022-10-16T12:07:04;7.70;;;4.30;;
68951;SDS011;56000;51.146;17.112;2022-10-16T12:09:41;16.20;;;5.40;;
68951;SDS011;56000;51.146;17.112;2022-10-16T12:12:27;5.30;;;2.40;;
68951;SDS011;56000;51.146;17.112;2022-10-16T12:15:25;3.10;;;2.20;;
68951;SDS011;56000;51.146;17.112;2022-10-16T12:18:24;3.80;;;2.50;;
68951;SDS011;56000;51.146;17.112;2022-10-16T12:20:57;3.80;;;2.90;;
68951;SDS011;56000;51.146;17.112;2022-10-16T12:23:38;5.10;;;3.10;;
68951;SDS011;56000;51.146;17.112;2022-10-16T12:26:26;7.90;;;3.50;;
68951;SDS011;56000;51.146;17.112;2022-10-16T12:29:14;6.90;;;4.10;;
68951;SDS011;56000;51.146;17.112;2022-10-16T12:32:00;4.40;;;3.30;;
68951;SDS011;56000;51.146;17.112;2022-10-16T12:34:41;5.30;;;3.30;;
68951;SDS011;56000;51.146;17.112;2022-10-16T12:37:19;8.40;;;3.90;;
68951;SDS011;56000;51.146;17.112;2022-10-16T12:39:55;5.80;;;4.00;;
68951;SDS011;56000;51.146;17.112;2022-10-16T12:42:35;5.50;;;3.50;;
68951;SDS011;56000;51.146;17.112;2022-10-16T12:45:25;6.30;;;3.70;;
68951;SDS011;56000;51.146;17.112;2022-10-16T12:48:01;4.50;;;3.20;;
68951;SDS011;56000;51.146;17.112;2022-10-16T12:50:48;5.50;;;3.30;;
68951;SDS011;56000;51.146;17.112;2022-10-16T12:53:22;4.80;;;3.20;;
68951;SDS011;56000;51.146;17.112;2022-10-16T12:56:04;4.10;;;3.20;;
68951;SDS011;56000;51.146;17.112;2022-10-16T12:58:54;3.30;;;2.70;;
68951;SDS011;56000;51.146;17.112;2022-10-16T13:01:46;5.40;;;3.10;;
68951;SDS011;56000;51.146;17.112;2022-10-16T13:04:42;3.90;;;3.20;;
68951;SDS011;56000;51.146;17.112;2022-10-16T13:07:32;4.50;;;3.30;;
68951;SDS011;56000;51.146;17.112;2022-10-16T13:10:19;6.30;;;3.10;;
68951;SDS011;56000;51.146;17.112;2022-10-16T13:16:01;7.90;;;3.60;;
68951;SDS011;56000;51.146;17.112;2022-10-16T13:18:48;4.50;;;3.60;;
68951;SDS011;56000;51.146;17.112;2022-10-16T13:21:35;4.70;;;3.80;;
68951;SDS011;56000;51.146;17.112;2022-10-16T13:24:31;5.00;;;4.00;;
68951;SDS011;56000;51.146;17.112;2022-10-16T13:27:31;5.80;;;3.80;;
68951;SDS011;56000;51.146;17.112;2022-10-16T13:30:15;6.30;;;3.90;;
68951;SDS011;56000;51.146;17.112;2022-10-16T13:32:56;7.50;;;3.80;;
68951;SDS011;56000;51.146;17.112;2022-10-16T13:35:33;5.60;;;4.10;;
68951;SDS011;56000;51.146;17.112;2022-10-16T13:38:14;7.50;;;4.60;;
68951;SDS011;56000;51.146;17.112;2022-10-16T13:40:56;8.00;;;4.80;;
68951;SDS011;56000;51.146;17.112;2022-10-16T13:43:39;6.60;;;4.20;;
68951;SDS011;56000;51.146;17.112;2022-10-16T13:46:15;5.50;;;4.50;;
68951;SDS011;56000;51.146;17.112;2022-10-16T13:48:59;5.60;;;4.50;;
68951;SDS011;56000;51.146;17.112;2022-10-16T13:51:34;5.40;;;4.60;;
68951;SDS011;56000;51.146;17.112;2022-10-16T13:54:07;6.50;;;4.80;;
68951;SDS011;56000;51.146;17.112;2022-10-16T13:56:42;8.20;;;5.20;;
68951;SDS011;56000;51.146;17.112;2022-10-16T13:59:26;7.40;;;4.10;;
68951;SDS011;56000;51.146;17.112;2022-10-16T14:02:08;6.10;;;4.50;;
68951;SDS011;56000;51.146;17.112;2022-10-16T14:04:51;6.20;;;4.70;;
68951;SDS011;56000;51.146;17.112;2022-10-16T14:07:26;14.40;;;5.10;;
68951;SDS011;56000;51.146;17.112;2022-10-16T14:10:03;5.60;;;4.30;;
68951;SDS011;56000;51.146;17.112;2022-10-16T14:12:55;6.90;;;4.50;;
68951;SDS011;56000;51.146;17.112;2022-10-16T14:15:30;7.30;;;3.90;;
68951;SDS011;56000;51.146;17.112;2022-10-16T14:18:05;9.50;;;4.00;;
68951;SDS011;56000;51.146;17.112;2022-10-16T14:20:44;6.30;;;4.00;;
68951;SDS011;56000;51.146;17.112;2022-10-16T14:23:23;4.50;;;3.40;;
68951;SDS011;56000;51.146;17.112;2022-10-16T14:26:19;3.90;;;3.20;;
68951;SDS011;56000;51.146;17.112;2022-10-16T14:29:10;3.30;;;2.60;;
68951;SDS011;56000;51.146;17.112;2022-10-16T14:31:55;3.20;;;2.60;;
68951;SDS011;56000;51.146;17.112;2022-10-16T14:34:31;9.50;;;4.70;;
68951;SDS011;56000;51.146;17.112;2022-10-16T14:37:13;8.90;;;4.10;;
68951;SDS011;56000;51.146;17.112;2022-10-16T14:39:57;5.10;;;2.90;;
68951;SDS011;56000;51.146;17.112;2022-10-16T14:42:31;6.20;;;2.90;;
68951;SDS011;56000;51.146;17.112;2022-10-16T14:45:09;3.40;;;2.90;;
68951;SDS011;56000;51.146;17.112;2022-10-16T14:47:49;5.50;;;3.00;;
68951;SDS011;56000;51.146;17.112;2022-10-16T14:50:24;5.70;;;3.90;;
68951;SDS011;56000;51.146;17.112;2022-10-16T14:52:57;3.80;;;2.90;;
68951;SDS011;56000;51.146;17.112;2022-10-16T14:55:30;4.30;;;3.10;;
68951;SDS011;56000;51.146;17.112;2022-10-16T14:58:03;6.40;;;2.90;;
68951;SDS011;56000;51.146;17.112;2022-10-16T15:00:36;4.90;;;3.00;;
68951;SDS011;56000;51.146;17.112;2022-10-16T15:03:09;4.00;;;3.10;;
68951;SDS011;56000;51.146;17.112;2022-10-16T15:05:42;6.60;;;3.30;;
68951;SDS011;56000;51.146;17.112;2022-10-16T15:08:15;7.90;;;5.00;;
68951;SDS011;56000;51.146;17.112;2022-10-16T15:10:48;6.20;;;3.70;;
68951;SDS011;56000;51.146;17.112;2022-10-16T15:13:21;5.90;;;3.10;;
68951;SDS011;56000;51.146;17.112;2022-10-16T15:15:54;4.50;;;3.10;;
68951;SDS011;56000;51.146;17.112;2022-10-16T15:18:27;4.00;;;3.00;;
68951;SDS011;56000;51.146;17.112;2022-10-16T15:21:00;5.60;;;3.20;;
68951;SDS011;56000;51.146;17.112;2022-10-16T15:23:33;8.00;;;4.00;;
68951;SDS011;56000;51.146;17.112;2022-10-16T15:26:07;9.60;;;4.20;;
68951;SDS011;56000;51.146;17.112;2022-10-16T15:28:40;29.70;;;11.80;;
68951;SDS011;56000;51.146;17.112;2022-10-16T15:31:13;6.80;;;3.80;;
68951;SDS011;56000;51.146;17.112;2022-10-16T15:33:46;6.20;;;2.80;;
68951;SDS011;56000;51.146;17.112;2022-10-16T15:36:29;4.70;;;3.00;;
68951;SDS011;56000;51.146;17.112;2022-10-16T15:39:10;3.60;;;2.80;;